Blake Denton — WDC7496 — position and weather

sailwx.info

Track history (hours):
 
Tides and Currents Weather Stations Pressure Air Temp Water Temp Dewpoint Dewpoint Depression Visibility Wind Speed Wind Dir Waves Ship Positions

Blake Denton

More information available from US FCC via Universal Licensing System and Coast Guard Vessel Documentation Center.

Last reported at 2014-Jul-26 08:31 UTC. Time now 2014-Jul-31 07:25 UTC.
Position N 30°15' W 091°07'.

Length 52 m.

Type: Towing. MMSI: 367072210.

Date/timePositionNaut miles runAvg speedWind from/ knotsBaromVisibWave heightAir tempDewpointWater temp
2014-Jul-26 08:31N 30°15' W 091°07'4 4.6
2014-Jul-26 07:33N 30°11' W 091°10'9 4.0
2014-Jul-26 05:23N 30°09' W 090°60'11 2.6
2014-Jul-26 01:09N 30°01' W 090°50'14 0.3
2014-Jul-24 07:25N 30°03' W 090°34'0 0.0
2014-Jul-24 06:22N 30°03' W 090°34'4 4.0
2014-Jul-24 05:18N 30°03' W 090°39'5 6.9
2014-Jul-24 04:33N 30°01' W 090°45'7 4.5
2014-Jul-24 03:06N 30°04' W 090°51'0 0.1
2014-Jul-24 01:28N 30°04' W 090°51'  
Track history (hours):
 
Tides and Currents Weather Stations Pressure Air Temp Water Temp Dewpoint Dewpoint Depression Visibility Wind Speed Wind Dir Waves Ship Positions

Blake Denton

More information available from US FCC via Universal Licensing System and Coast Guard Vessel Documentation Center.

Last reported at 2014-Jul-26 08:31 UTC. Time now 2014-Jul-31 07:25 UTC.
Position N 30°15' W 091°07'.

Length 52 m.

Type: Towing. MMSI: 367072210.

Date/timePositionNaut miles runAvg speedWind from/ knotsBaromVisibWave heightAir tempDewpointWater temp
2014-Jul-26 08:31N 30°15' W 091°07'4 4.6
2014-Jul-26 07:33N 30°11' W 091°10'9 4.0
2014-Jul-26 05:23N 30°09' W 090°60'11 2.6
2014-Jul-26 01:09N 30°01' W 090°50'14 0.3
2014-Jul-24 07:25N 30°03' W 090°34'0 0.0
2014-Jul-24 06:22N 30°03' W 090°34'4 4.0
2014-Jul-24 05:18N 30°03' W 090°39'5 6.9
2014-Jul-24 04:33N 30°01' W 090°45'7 4.5
2014-Jul-24 03:06N 30°04' W 090°51'0 0.1
2014-Jul-24 01:28N 30°04' W 090°51'  

Dump ship's entire track history